This is the latest recevied weather packets stored in our database for station/object NUUKSIO. If no packets are shown the sender has not sent any weather packets the latest 10 day(s).
| Time | Temp. | Humidity | Pressure | Rain* | Wind** | Luminosity | Snow |
|---|---|---|---|---|---|---|---|
| 1777579615 | 10° C | 72% | 1020.8 hPa | 0 mm | - | - | - |
| 1777578415 | 10.56° C | 69% | 1020.7 hPa | 0 mm | - | - | - |
| 1777577215 | 11.11° C | 68% | 1020.7 hPa | 0 mm | - | - | - |
| 1777576015 | 11.67° C | 65% | 1020.6 hPa | 0 mm | - | - | - |
| 1777574815 | 12.22° C | 65% | 1020.4 hPa | 0 mm | - | - | - |
| 1777573615 | 12.22° C | 64% | 1020.2 hPa | 0 mm | - | - | - |
| 1777572414 | 13.33° C | 61% | 1019.9 hPa | 0 mm | - | - | - |
| 1777571214 | 13.89° C | 57% | 1019.8 hPa | 0 mm | - | - | - |
| 1777570014 | 13.89° C | 56% | 1019.7 hPa | 0 mm | - | - | - |
| 1777568814 | 14.44° C | 55% | 1019.7 hPa | 0 mm | - | - | - |
| 1777567614 | 15° C | 55% | 1019.7 hPa | 0 mm | - | - | - |
| 1777566415 | 15° C | 54% | 1019.6 hPa | 0 mm | - | - | - |
| 1777565214 | 15° C | 53% | 1019.5 hPa | 0 mm | - | - | - |
| 1777564014 | 15° C | 51% | 1019.5 hPa | 0 mm | - | - | - |
| 1777562814 | 15.56° C | 51% | 1019.6 hPa | 0 mm | - | - | - |
| 1777561614 | 15.56° C | 50% | 1019.6 hPa | 0 mm | - | - | - |
| 1777560414 | 15.56° C | 50% | 1019.6 hPa | 0 mm | - | - | - |
| 1777559214 | 15.56° C | 50% | 1019.7 hPa | 0 mm | - | - | - |
| 1777558013 | 15.56° C | 50% | 1019.8 hPa | 0 mm | - | - | - |
| 1777556813 | 15.56° C | 50% | 1019.9 hPa | 0 mm | - | - | - |
| 1777555614 | 15° C | 51% | 1020 hPa | 0 mm | - | - | - |
| 1777554413 | 15.56° C | 49% | 1020 hPa | 0 mm | - | - | - |
| 1777553213 | 15.56° C | 50% | 1020.1 hPa | 0 mm | - | - | - |
| 1777552013 | 15.56° C | 52% | 1020.2 hPa | 0 mm | - | - | - |
| 1777550813 | 14.44° C | 52% | 1020.4 hPa | 0 mm | - | - | - |
* Rain latest hour (hover to see other rain measurements)
** Current wind speed in m/s (hover to see current wind gust speed)